Time;durP1;ratioP1;P1;durP2;ratioP2;P2;SDS_P1;SDS_P2;PMS_P1;PMS_P2;Temp;Humidity;BMP_temperature;BMP_pressure;BME280_temperature;BME280_humidity;BME280_pressure;Samples;Min_cycle;Max_cycle;Signal;HPM_P1;HPM_P2
2021/12/12 00:03:03;;;;;;;0.20;0.00;;;11.00;99.90;;;;;;20588923;28;20267;-74
2021/12/12 00:13:10;;;;;;;0.20;0.10;;;10.60;99.90;;;;;;20566684;28;20273;-73
2021/12/12 00:23:15;;;;;;;0.20;0.10;;;10.50;99.90;;;;;;20574695;28;20233;-73
2021/12/12 00:33:20;;;;;;;0.20;0.07;;;10.50;99.90;;;;;;20570120;28;20271;-73
2021/12/12 00:43:28;;;;;;;0.20;0.10;;;10.40;99.90;;;;;;20581310;28;20315;-73
2021/12/12 00:53:32;;;;;;;0.20;0.00;;;10.40;99.90;;;;;;20580310;28;20275;-75
2021/12/12 01:03:41;;;;;;;0.20;0.00;;;10.50;99.90;;;;;;20579815;28;20254;-71
2021/12/12 01:13:47;;;;;;;0.20;0.10;;;10.50;99.90;;;;;;20579365;28;20224;-74
2021/12/12 01:23:57;;;;;;;0.20;0.10;;;10.40;99.90;;;;;;20580706;28;20228;-71
2021/12/12 01:34:10;;;;;;;0.20;0.10;;;10.20;99.90;;;;;;20560152;28;20200;-72
2021/12/12 01:44:18;;;;;;;0.20;0.10;;;10.20;99.90;;;;;;20560718;28;20215;-70
2021/12/12 01:54:27;;;;;;;0.20;0.10;;;10.10;99.90;;;;;;20577208;28;20228;-70
2021/12/12 02:04:37;;;;;;;0.20;0.10;;;10.30;99.90;;;;;;20589332;23;20246;-67
2021/12/12 02:14:43;;;;;;;0.20;0.10;;;10.50;99.90;;;;;;20607816;28;20203;-66
2021/12/12 02:35:13;;;;;;;0.20;0.00;;;10.20;99.90;;;;;;20653490;28;20251;-67
2021/12/12 02:45:19;;;;;;;0.20;0.10;;;9.90;99.90;;;;;;20655147;28;20230;-66
2021/12/12 02:55:28;;;;;;;0.20;0.10;;;9.90;99.90;;;;;;20655727;28;20199;-67
2021/12/12 03:05:45;;;;;;;0.20;0.03;;;9.90;99.90;;;;;;20825562;23;20233;-70
2021/12/12 03:15:49;;;;;;;0.20;0.10;;;10.00;99.90;;;;;;20976806;28;20220;-73
2021/12/12 03:25:59;;;;;;;0.20;0.10;;;10.40;99.90;;;;;;20998978;28;20224;-72
2021/12/12 03:36:05;;;;;;;0.30;0.30;;;10.40;99.90;;;;;;20998023;28;20554;-71
2021/12/12 03:46:11;;;;;;;0.20;0.10;;;10.30;99.90;;;;;;20998245;28;20232;-74
2021/12/12 03:56:17;;;;;;;0.20;0.10;;;10.40;99.90;;;;;;20996648;28;20743;-71
2021/12/12 04:06:25;;;;;;;0.20;0.00;;;10.40;99.90;;;;;;20996082;28;20712;-70
2021/12/12 04:16:31;;;;;;;0.20;0.10;;;10.40;99.90;;;;;;20930280;28;20276;-70
2021/12/12 04:26:39;;;;;;;0.20;0.10;;;10.40;99.90;;;;;;20911080;28;20229;-70
2021/12/12 04:36:45;;;;;;;0.20;0.10;;;10.10;99.90;;;;;;20910417;28;20292;-70
2021/12/12 04:57:24;;;;;;;0.20;0.10;;;9.60;99.90;;;;;;20909924;28;20645;-72
2021/12/12 05:07:35;;;;;;;0.20;0.10;;;9.50;99.90;;;;;;20900088;23;20244;-67
2021/12/12 05:17:42;;;;;;;2.30;1.73;;;9.30;99.90;;;;;;20982216;28;20245;-67
2021/12/12 05:27:50;;;;;;;0.20;0.10;;;9.30;99.90;;;;;;20988423;28;20228;-68
2021/12/12 05:37:56;;;;;;;0.20;0.10;;;9.60;99.90;;;;;;20987032;28;20672;-68
2021/12/12 05:48:02;;;;;;;0.20;0.20;;;9.50;99.90;;;;;;20987740;28;20197;-66
2021/12/12 05:58:11;;;;;;;0.20;0.10;;;9.20;99.90;;;;;;20967905;28;20220;-67
2021/12/12 06:08:17;;;;;;;0.20;0.00;;;9.10;99.90;;;;;;20985237;28;20227;-68
2021/12/12 06:18:23;;;;;;;0.20;0.10;;;9.20;99.90;;;;;;20903625;28;20235;-68
2021/12/12 06:28:30;;;;;;;0.20;0.20;;;9.00;99.90;;;;;;20901171;28;20552;-66
2021/12/12 06:38:36;;;;;;;0.20;0.10;;;9.00;99.90;;;;;;20882839;28;20221;-66
2021/12/12 06:48:41;;;;;;;0.20;0.10;;;8.90;99.90;;;;;;20900560;28;20654;-66
2021/12/12 06:58:48;;;;;;;0.20;0.10;;;9.20;99.90;;;;;;20897928;28;20227;-65
2021/12/12 07:08:57;;;;;;;0.20;0.10;;;9.20;99.90;;;;;;20900622;28;20236;-67
2021/12/12 07:19:12;;;;;;;0.20;0.10;;;9.30;99.90;;;;;;20964369;28;20224;-66
2021/12/12 07:29:18;;;;;;;0.20;0.00;;;9.50;99.90;;;;;;20979756;28;20202;-66
2021/12/12 07:39:23;;;;;;;0.20;0.10;;;9.60;99.90;;;;;;20980489;28;20252;-66
2021/12/12 07:49:32;;;;;;;0.20;0.00;;;10.00;99.90;;;;;;20962617;28;20227;-66
2021/12/12 07:59:37;;;;;;;0.20;0.10;;;10.20;99.90;;;;;;20994936;28;20315;-66
2021/12/12 08:09:43;;;;;;;0.20;0.10;;;10.50;99.90;;;;;;20985638;28;21031;-66
2021/12/12 08:19:47;;;;;;;0.20;0.10;;;10.70;99.90;;;;;;20910259;28;20245;-67
2021/12/12 08:29:53;;;;;;;0.20;0.10;;;11.20;99.90;;;;;;20910797;28;20224;-67
2021/12/12 08:39:57;;;;;;;0.40;0.40;;;11.40;99.90;;;;;;20908916;28;20227;-66
2021/12/12 08:50:04;;;;;;;0.20;0.10;;;11.50;99.90;;;;;;20908302;28;20236;-67
2021/12/12 09:00:12;;;;;;;0.20;0.10;;;11.70;99.90;;;;;;20905772;28;20237;-66
2021/12/12 09:10:22;;;;;;;0.20;0.10;;;12.10;99.90;;;;;;20916486;28;20597;-67
2021/12/12 09:20:33;;;;;;;0.20;0.10;;;12.30;99.90;;;;;;20908717;28;20224;-65
2021/12/12 09:30:39;;;;;;;0.20;0.10;;;12.60;99.90;;;;;;20902077;28;20194;-67
2021/12/12 09:41:20;;;;;;;0.20;0.10;;;12.80;99.90;;;;;;20901991;28;20671;-66
2021/12/12 09:51:36;;;;;;;0.20;0.00;;;13.00;99.90;;;;;;20899443;28;20200;-67
2021/12/12 10:01:43;;;;;;;0.20;0.07;;;13.20;99.90;;;;;;20876988;28;20825;-66
2021/12/12 10:11:55;;;;;;;0.20;0.10;;;13.70;99.90;;;;;;20897175;28;20205;-67
2021/12/12 10:22:13;;;;;;;0.20;0.03;;;14.10;99.90;;;;;;20896510;28;20220;-67
2021/12/12 10:32:23;;;;;;;0.20;0.10;;;14.80;99.90;;;;;;20896181;28;20343;-66
2021/12/12 10:42:31;;;;;;;0.20;0.07;;;15.20;99.90;;;;;;20874660;28;20307;-68
2021/12/12 10:52:41;;;;;;;0.20;0.10;;;15.70;99.90;;;;;;20895256;28;20284;-67
2021/12/12 11:02:49;;;;;;;0.20;0.10;;;16.10;99.90;;;;;;20908555;28;20224;-67
2021/12/12 11:13:03;;;;;;;0.20;0.10;;;17.00;99.90;;;;;;20924778;28;20200;-68
2021/12/12 11:23:09;;;;;;;0.20;0.10;;;16.90;99.90;;;;;;20896188;28;20225;-66
2021/12/12 11:33:17;;;;;;;0.20;0.10;;;17.10;99.90;;;;;;20891638;28;20190;-67
2021/12/12 11:43:28;;;;;;;0.20;0.10;;;17.80;99.90;;;;;;20911595;28;20225;-68
2021/12/12 11:53:39;;;;;;;0.20;0.10;;;18.60;99.90;;;;;;20909206;28;20722;-69
2021/12/12 12:04:03;;;;;;;0.20;0.00;;;19.50;99.90;;;;;;20908567;28;20229;-68
2021/12/12 12:14:12;;;;;;;0.20;0.10;;;20.40;99.90;;;;;;20951996;28;20762;-70
2021/12/12 12:24:26;;;;;;;0.20;0.00;;;21.00;99.90;;;;;;20953411;28;20416;-67
2021/12/12 12:35:03;;;;;;;0.20;0.00;;;20.90;99.90;;;;;;20906663;28;20224;-68
2021/12/12 12:45:43;;;;;;;0.20;0.00;;;20.30;99.90;;;;;;20905001;28;20247;-68
2021/12/12 12:56:33;;;;;;;0.20;0.10;;;21.00;99.90;;;;;;20904003;28;20198;-68
2021/12/12 13:07:15;;;;;;;0.20;0.00;;;20.70;99.90;;;;;;20899807;28;20598;-69
2021/12/12 13:17:31;;;;;;;0.20;0.10;;;20.80;99.90;;;;;;20969665;28;20196;-69
2021/12/12 13:28:01;;;;;;;0.20;0.10;;;20.00;99.90;;;;;;20983131;28;20235;-66
2021/12/12 13:38:13;;;;;;;0.20;0.00;;;19.90;99.90;;;;;;20985579;28;20642;-69
2021/12/12 13:48:43;;;;;;;0.20;0.10;;;20.40;99.90;;;;;;20983341;28;20351;-69
2021/12/12 13:58:58;;;;;;;0.20;0.00;;;20.90;99.90;;;;;;20977671;28;20193;-65
2021/12/12 14:09:07;;;;;;;0.30;0.30;;;21.40;99.90;;;;;;20976947;28;20241;-69
2021/12/12 14:19:15;;;;;;;0.20;0.10;;;22.00;99.90;;;;;;20896582;28;20714;-68
2021/12/12 14:29:23;;;;;;;0.20;0.00;;;22.40;99.90;;;;;;20895302;28;20219;-68
2021/12/12 14:39:31;;;;;;;0.20;0.10;;;22.60;99.90;;;;;;20895759;28;20225;-68
2021/12/12 14:49:39;;;;;;;0.20;0.10;;;19.30;99.90;;;;;;20894958;28;20296;-68
2021/12/12 14:59:48;;;;;;;0.20;0.00;;;18.70;99.90;;;;;;20893207;28;20740;-68
2021/12/12 15:09:55;;;;;;;0.20;0.10;;;18.60;99.90;;;;;;20905062;28;20193;-68
2021/12/12 15:20:04;;;;;;;0.20;0.00;;;19.30;99.90;;;;;;20958483;28;20224;-68
2021/12/12 15:30:12;;;;;;;0.20;0.00;;;20.00;99.90;;;;;;20951733;28;20283;-68
2021/12/12 15:40:22;;;;;;;0.20;0.00;;;19.90;99.90;;;;;;20875415;28;20328;-67
2021/12/12 15:50:32;;;;;;;0.20;0.00;;;19.40;99.90;;;;;;20892111;28;20194;-68
2021/12/12 16:00:45;;;;;;;0.20;0.10;;;17.80;99.90;;;;;;20873340;28;20251;-68
2021/12/12 16:10:51;;;;;;;0.20;0.10;;;16.10;99.90;;;;;;20909333;28;20192;-69
2021/12/12 16:20:57;;;;;;;0.20;0.10;;;14.40;99.90;;;;;;20985604;28;20228;-68
2021/12/12 16:31:03;;;;;;;0.20;0.10;;;14.20;99.90;;;;;;20904167;28;20221;-67
2021/12/12 16:41:12;;;;;;;0.20;0.10;;;14.00;99.90;;;;;;20887483;28;20332;-67
2021/12/12 16:51:27;;;;;;;0.20;0.10;;;13.20;99.90;;;;;;20884510;28;20210;-68
2021/12/12 17:01:36;;;;;;;0.20;0.10;;;12.90;99.90;;;;;;20901994;28;20332;-66
2021/12/12 17:11:51;;;;;;;0.20;0.00;;;12.40;99.90;;;;;;20901049;28;20272;-67
2021/12/12 17:22:01;;;;;;;0.20;0.10;;;12.00;99.90;;;;;;20901084;28;20231;-67
2021/12/12 17:32:08;;;;;;;0.20;0.10;;;11.70;99.90;;;;;;20898984;28;20561;-66
2021/12/12 17:42:42;;;;;;;0.20;0.10;;;11.60;99.90;;;;;;20898499;28;20217;-67
2021/12/12 17:52:58;;;;;;;0.20;0.10;;;11.40;99.90;;;;;;20872269;28;20729;-68
2021/12/12 18:03:06;;;;;;;0.20;0.10;;;11.20;99.90;;;;;;20896141;28;20233;-66
2021/12/12 18:13:14;;;;;;;0.20;0.10;;;10.90;99.90;;;;;;20896785;28;20185;-66
2021/12/12 18:23:20;;;;;;;0.20;0.10;;;11.10;99.90;;;;;;20895064;28;20221;-65
2021/12/12 18:33:33;;;;;;;0.20;0.10;;;10.90;99.90;;;;;;20892915;28;20592;-67
2021/12/12 18:43:40;;;;;;;0.20;0.00;;;10.30;99.90;;;;;;20874942;28;20573;-68
2021/12/12 18:53:50;;;;;;;0.20;0.10;;;10.60;99.90;;;;;;20875573;28;20198;-67
2021/12/12 19:03:56;;;;;;;0.20;0.10;;;10.50;99.90;;;;;;20871256;28;20244;-67
2021/12/12 19:24:40;;;;;;;0.20;0.10;;;10.40;99.90;;;;;;22370862;22;20233;-70
2021/12/12 19:34:46;;;;;;;0.20;0.10;;;11.50;99.90;;;;;;20883811;28;20228;-71
2021/12/12 19:44:51;;;;;;;0.20;0.10;;;11.90;99.90;;;;;;20886002;28;20229;-73
2021/12/12 19:55:02;;;;;;;0.20;0.00;;;11.80;99.90;;;;;;20912214;28;20198;-70
2021/12/12 20:05:10;;;;;;;0.20;0.10;;;12.00;99.90;;;;;;20899751;28;20216;-73
2021/12/12 20:15:23;;;;;;;0.20;0.10;;;11.90;99.90;;;;;;20896376;28;20190;-71
2021/12/12 20:25:32;;;;;;;0.20;0.10;;;11.30;99.90;;;;;;20914006;28;20728;-71
2021/12/12 20:35:39;;;;;;;0.20;0.10;;;10.80;99.90;;;;;;20915187;28;20247;-72
2021/12/12 20:45:48;;;;;;;0.20;0.10;;;10.80;99.90;;;;;;20896627;28;20264;-72
2021/12/12 20:55:54;;;;;;;0.20;0.10;;;11.50;99.90;;;;;;20914068;28;20250;-71
2021/12/12 21:06:04;;;;;;;0.20;0.20;;;11.20;99.90;;;;;;20913241;28;20316;-71
2021/12/12 21:16:10;;;;;;;0.20;0.10;;;11.30;99.90;;;;;;20914529;28;20208;-73
2021/12/12 21:26:20;;;;;;;0.20;0.10;;;11.30;99.90;;;;;;20911071;28;20701;-71
2021/12/12 21:36:30;;;;;;;0.20;0.10;;;11.30;99.90;;;;;;20913498;28;20551;-72
2021/12/12 21:46:44;;;;;;;0.20;0.10;;;11.20;99.90;;;;;;20911508;28;20319;-70
2021/12/12 21:57:01;;;;;;;0.20;0.10;;;11.10;99.90;;;;;;20909990;28;20199;-71
2021/12/12 22:07:09;;;;;;;0.47;0.47;;;11.10;99.90;;;;;;20909513;28;20320;-71
2021/12/12 22:17:17;;;;;;;0.20;0.10;;;11.10;99.90;;;;;;20902447;28;20229;-71
2021/12/12 22:27:25;;;;;;;0.20;0.10;;;11.00;99.90;;;;;;20908372;28;20236;-71
2021/12/12 22:37:32;;;;;;;0.20;0.10;;;11.00;99.90;;;;;;20932272;28;20198;-70
2021/12/12 22:47:39;;;;;;;0.20;0.10;;;10.80;99.90;;;;;;20908113;28;20805;-72
2021/12/12 22:57:46;;;;;;;0.20;0.10;;;10.40;99.90;;;;;;20908850;28;20209;-71
2021/12/12 23:07:54;;;;;;;0.20;0.10;;;10.30;99.90;;;;;;20908444;28;20257;-72
2021/12/12 23:18:01;;;;;;;0.20;0.00;;;10.10;99.90;;;;;;20906114;28;20194;-72
2021/12/12 23:29:17;;;;;;;0.20;0.10;;;9.60;99.90;;;;;;20919437;28;20229;-73
2021/12/12 23:38:41;;;;;;;0.20;0.10;;;9.50;99.90;;;;;;20906061;28;20205;-73
2021/12/12 23:48:48;;;;;;;0.20;0.10;;;9.20;99.90;;;;;;20922701;28;20227;-73
2021/12/12 23:58:56;;;;;;;0.20;0.00;;;8.90;99.90;;;;;;20923260;28;20267;-72
